East Machias, Maine
Current Conditions -  °F | °C
As of 5:35 PM on Tuesday 21 Oct 2014 (Local Time) from KBHB Reporting Station
Overcast Overcast  
Wind Chill: 52°   Ceiling: 2100
Heat Index: 52°   Visibility: 8mi
Dew Point: 52°   Wind: 9mph
Humidity: 100%   Direction: 50°NE
Pressure: 30.09"   Gusts: NA
Location:  44.74°N, 67.39°W
Report Text: KBHB 212135Z AUTO 05008KT 8SM FEW009 BKN021 OVC027 11/11 A3009 RMK AO1 P0001
Loading
Personal Weather Stations






























Interactive Weather Map
Tropical Storm Tracking
New forecast layout! Learn more

10-Day Weather Forecast

Advertisements
Track Severe Weather on mobile